sensor_id;sensor_type;location;lat;lon;timestamp;P1;durP1;ratioP1;P2;durP2;ratioP2
47713;SDS011;33475;46.614;13.888;2023-06-10T00:00:42;2.47;;;2.28;;
47713;SDS011;33475;46.614;13.888;2023-06-10T00:03:09;2.33;;;2.13;;
47713;SDS011;33475;46.614;13.888;2023-06-10T00:05:35;2.30;;;2.10;;
47713;SDS011;33475;46.614;13.888;2023-06-10T00:08:04;3.05;;;2.35;;
47713;SDS011;33475;46.614;13.888;2023-06-10T00:10:34;2.00;;;1.90;;
47713;SDS011;33475;46.614;13.888;2023-06-10T00:13:01;2.72;;;2.53;;
47713;SDS011;33475;46.614;13.888;2023-06-10T00:15:28;5.75;;;2.20;;
47713;SDS011;33475;46.614;13.888;2023-06-10T00:17:55;2.50;;;2.20;;
47713;SDS011;33475;46.614;13.888;2023-06-10T00:20:21;2.95;;;2.30;;
47713;SDS011;33475;46.614;13.888;2023-06-10T00:22:49;2.78;;;2.58;;
47713;SDS011;33475;46.614;13.888;2023-06-10T00:25:16;3.00;;;2.70;;
47713;SDS011;33475;46.614;13.888;2023-06-10T00:27:42;2.88;;;2.38;;
47713;SDS011;33475;46.614;13.888;2023-06-10T00:30:09;4.75;;;2.50;;
47713;SDS011;33475;46.614;13.888;2023-06-10T00:32:35;2.53;;;2.33;;
47713;SDS011;33475;46.614;13.888;2023-06-10T00:35:02;3.40;;;2.42;;
47713;SDS011;33475;46.614;13.888;2023-06-10T00:37:28;3.88;;;2.60;;
47713;SDS011;33475;46.614;13.888;2023-06-10T00:39:55;4.68;;;2.50;;
47713;SDS011;33475;46.614;13.888;2023-06-10T00:42:22;3.28;;;2.28;;
47713;SDS011;33475;46.614;13.888;2023-06-10T00:44:52;4.05;;;2.60;;
47713;SDS011;33475;46.614;13.888;2023-06-10T00:47:18;2.53;;;2.40;;
47713;SDS011;33475;46.614;13.888;2023-06-10T00:49:44;4.30;;;3.13;;
47713;SDS011;33475;46.614;13.888;2023-06-10T00:52:11;4.05;;;2.63;;
47713;SDS011;33475;46.614;13.888;2023-06-10T00:54:37;2.63;;;2.40;;
47713;SDS011;33475;46.614;13.888;2023-06-10T00:57:04;4.22;;;2.75;;
47713;SDS011;33475;46.614;13.888;2023-06-10T00:59:30;2.70;;;2.50;;
47713;SDS011;33475;46.614;13.888;2023-06-10T01:01:57;3.33;;;2.45;;
47713;SDS011;33475;46.614;13.888;2023-06-10T01:04:23;4.53;;;2.88;;
47713;SDS011;33475;46.614;13.888;2023-06-10T01:09:50;7.07;;;3.25;;
47713;SDS011;33475;46.614;13.888;2023-06-10T01:14:53;5.88;;;3.30;;
47713;SDS011;33475;46.614;13.888;2023-06-10T01:17:20;2.97;;;2.78;;
47713;SDS011;33475;46.614;13.888;2023-06-10T01:19:53;4.05;;;2.88;;
47713;SDS011;33475;46.614;13.888;2023-06-10T01:22:20;3.50;;;3.20;;
47713;SDS011;33475;46.614;13.888;2023-06-10T01:24:47;4.97;;;3.05;;
47713;SDS011;33475;46.614;13.888;2023-06-10T01:27:15;6.68;;;2.90;;
47713;SDS011;33475;46.614;13.888;2023-06-10T01:29:45;2.80;;;2.60;;
47713;SDS011;33475;46.614;13.888;2023-06-10T01:32:28;4.30;;;2.88;;
47713;SDS011;33475;46.614;13.888;2023-06-10T01:34:55;5.60;;;2.67;;
47713;SDS011;33475;46.614;13.888;2023-06-10T01:37:22;3.90;;;3.60;;
47713;SDS011;33475;46.614;13.888;2023-06-10T01:39:50;4.03;;;3.63;;
47713;SDS011;33475;46.614;13.888;2023-06-10T01:42:16;4.00;;;3.60;;
47713;SDS011;33475;46.614;13.888;2023-06-10T01:44:43;4.15;;;3.40;;
47713;SDS011;33475;46.614;13.888;2023-06-10T01:47:09;5.80;;;3.70;;
47713;SDS011;33475;46.614;13.888;2023-06-10T01:49:35;4.28;;;3.80;;
47713;SDS011;33475;46.614;13.888;2023-06-10T01:52:01;3.22;;;2.92;;
47713;SDS011;33475;46.614;13.888;2023-06-10T01:54:27;3.15;;;2.85;;
47713;SDS011;33475;46.614;13.888;2023-06-10T01:56:53;3.42;;;3.13;;
47713;SDS011;33475;46.614;13.888;2023-06-10T01:59:19;3.58;;;3.28;;
47713;SDS011;33475;46.614;13.888;2023-06-10T02:01:46;3.63;;;3.33;;
47713;SDS011;33475;46.614;13.888;2023-06-10T02:04:12;3.40;;;3.10;;
47713;SDS011;33475;46.614;13.888;2023-06-10T02:06:38;5.57;;;3.67;;
47713;SDS011;33475;46.614;13.888;2023-06-10T02:09:04;4.15;;;3.75;;
47713;SDS011;33475;46.614;13.888;2023-06-10T02:11:30;3.45;;;3.22;;
47713;SDS011;33475;46.614;13.888;2023-06-10T02:13:56;5.72;;;3.60;;
47713;SDS011;33475;46.614;13.888;2023-06-10T02:16:22;4.82;;;3.65;;
47713;SDS011;33475;46.614;13.888;2023-06-10T02:18:49;3.90;;;3.53;;
47713;SDS011;33475;46.614;13.888;2023-06-10T02:21:15;4.22;;;3.55;;
47713;SDS011;33475;46.614;13.888;2023-06-10T02:23:41;6.93;;;4.13;;
47713;SDS011;33475;46.614;13.888;2023-06-10T02:26:07;4.30;;;3.90;;
47713;SDS011;33475;46.614;13.888;2023-06-10T02:28:33;4.38;;;3.65;;
47713;SDS011;33475;46.614;13.888;2023-06-10T02:30:59;4.25;;;3.85;;
47713;SDS011;33475;46.614;13.888;2023-06-10T02:33:26;4.15;;;3.75;;
47713;SDS011;33475;46.614;13.888;2023-06-10T02:35:52;4.10;;;3.63;;
47713;SDS011;33475;46.614;13.888;2023-06-10T02:38:18;4.45;;;3.70;;
47713;SDS011;33475;46.614;13.888;2023-06-10T02:40:44;4.70;;;4.07;;
47713;SDS011;33475;46.614;13.888;2023-06-10T02:43:10;3.97;;;3.63;;
47713;SDS011;33475;46.614;13.888;2023-06-10T02:45:36;4.00;;;3.70;;
47713;SDS011;33475;46.614;13.888;2023-06-10T02:48:03;4.47;;;4.07;;
47713;SDS011;33475;46.614;13.888;2023-06-10T02:50:29;4.07;;;3.67;;
47713;SDS011;33475;46.614;13.888;2023-06-10T02:52:55;5.40;;;4.50;;
47713;SDS011;33475;46.614;13.888;2023-06-10T02:55:21;4.90;;;4.45;;
47713;SDS011;33475;46.614;13.888;2023-06-10T02:57:51;3.78;;;3.47;;
47713;SDS011;33475;46.614;13.888;2023-06-10T03:00:19;4.38;;;3.97;;
47713;SDS011;33475;46.614;13.888;2023-06-10T03:02:46;5.13;;;4.63;;
47713;SDS011;33475;46.614;13.888;2023-06-10T03:05:13;4.55;;;4.15;;
47713;SDS011;33475;46.614;13.888;2023-06-10T03:07:40;6.68;;;3.97;;
47713;SDS011;33475;46.614;13.888;2023-06-10T03:10:06;5.03;;;4.63;;
47713;SDS011;33475;46.614;13.888;2023-06-10T03:12:32;5.93;;;4.28;;
47713;SDS011;33475;46.614;13.888;2023-06-10T03:14:58;6.28;;;3.80;;
47713;SDS011;33475;46.614;13.888;2023-06-10T03:17:25;4.32;;;4.03;;
47713;SDS011;33475;46.614;13.888;2023-06-10T03:19:51;5.43;;;3.70;;
47713;SDS011;33475;46.614;13.888;2023-06-10T03:22:17;6.07;;;4.25;;
47713;SDS011;33475;46.614;13.888;2023-06-10T03:24:43;4.38;;;3.83;;
47713;SDS011;33475;46.614;13.888;2023-06-10T03:27:11;4.13;;;3.72;;
47713;SDS011;33475;46.614;13.888;2023-06-10T03:29:38;7.75;;;4.22;;
47713;SDS011;33475;46.614;13.888;2023-06-10T03:32:05;4.47;;;3.90;;
47713;SDS011;33475;46.614;13.888;2023-06-10T03:34:31;5.10;;;3.70;;
47713;SDS011;33475;46.614;13.888;2023-06-10T03:36:59;6.03;;;3.63;;
47713;SDS011;33475;46.614;13.888;2023-06-10T03:39:25;6.18;;;3.80;;
47713;SDS011;33475;46.614;13.888;2023-06-10T03:41:54;3.63;;;3.30;;
47713;SDS011;33475;46.614;13.888;2023-06-10T03:44:22;4.63;;;3.55;;
47713;SDS011;33475;46.614;13.888;2023-06-10T03:46:48;5.47;;;3.45;;
47713;SDS011;33475;46.614;13.888;2023-06-10T03:49:14;7.15;;;3.50;;
47713;SDS011;33475;46.614;13.888;2023-06-10T03:51:41;4.05;;;3.58;;
47713;SDS011;33475;46.614;13.888;2023-06-10T03:54:07;4.53;;;3.83;;
47713;SDS011;33475;46.614;13.888;2023-06-10T03:56:33;4.68;;;3.33;;
47713;SDS011;33475;46.614;13.888;2023-06-10T03:59:00;4.25;;;3.85;;
47713;SDS011;33475;46.614;13.888;2023-06-10T04:01:26;3.63;;;3.33;;
47713;SDS011;33475;46.614;13.888;2023-06-10T04:03:53;4.68;;;3.22;;
47713;SDS011;33475;46.614;13.888;2023-06-10T04:06:20;4.88;;;3.28;;
47713;SDS011;33475;46.614;13.888;2023-06-10T04:08:47;9.38;;;3.75;;
47713;SDS011;33475;46.614;13.888;2023-06-10T04:11:14;3.72;;;3.25;;
47713;SDS011;33475;46.614;13.888;2023-06-10T04:13:40;3.53;;;3.22;;
47713;SDS011;33475;46.614;13.888;2023-06-10T04:16:06;3.55;;;3.25;;
47713;SDS011;33475;46.614;13.888;2023-06-10T04:18:32;4.93;;;3.10;;
47713;SDS011;33475;46.614;13.888;2023-06-10T04:20:58;3.40;;;3.10;;
47713;SDS011;33475;46.614;13.888;2023-06-10T04:23:24;3.83;;;3.30;;
47713;SDS011;33475;46.614;13.888;2023-06-10T04:25:51;3.80;;;3.10;;
47713;SDS011;33475;46.614;13.888;2023-06-10T04:28:17;3.40;;;3.10;;
47713;SDS011;33475;46.614;13.888;2023-06-10T04:30:43;4.70;;;3.60;;
47713;SDS011;33475;46.614;13.888;2023-06-10T04:33:11;5.82;;;3.55;;
47713;SDS011;33475;46.614;13.888;2023-06-10T04:35:37;4.32;;;3.42;;
47713;SDS011;33475;46.614;13.888;2023-06-10T04:38:03;3.17;;;2.88;;
47713;SDS011;33475;46.614;13.888;2023-06-10T04:40:29;2.92;;;2.70;;
47713;SDS011;33475;46.614;13.888;2023-06-10T04:42:55;3.03;;;2.83;;
47713;SDS011;33475;46.614;13.888;2023-06-10T04:45:22;4.10;;;2.70;;
47713;SDS011;33475;46.614;13.888;2023-06-10T04:47:48;4.55;;;2.80;;
47713;SDS011;33475;46.614;13.888;2023-06-10T04:50:14;5.72;;;3.08;;
47713;SDS011;33475;46.614;13.888;2023-06-10T04:52:40;3.28;;;2.97;;
47713;SDS011;33475;46.614;13.888;2023-06-10T04:55:07;4.50;;;2.67;;
47713;SDS011;33475;46.614;13.888;2023-06-10T04:57:34;3.55;;;3.25;;
47713;SDS011;33475;46.614;13.888;2023-06-10T05:00:00;2.97;;;2.78;;
47713;SDS011;33475;46.614;13.888;2023-06-10T05:02:26;6.13;;;2.60;;
47713;SDS011;33475;46.614;13.888;2023-06-10T05:04:52;5.57;;;3.17;;
47713;SDS011;33475;46.614;13.888;2023-06-10T05:07:20;3.05;;;2.85;;
47713;SDS011;33475;46.614;13.888;2023-06-10T05:09:46;4.53;;;3.67;;
47713;SDS011;33475;46.614;13.888;2023-06-10T05:12:12;6.55;;;3.42;;
47713;SDS011;33475;46.614;13.888;2023-06-10T05:14:38;3.65;;;3.35;;
47713;SDS011;33475;46.614;13.888;2023-06-10T05:17:05;3.38;;;3.10;;
47713;SDS011;33475;46.614;13.888;2023-06-10T05:19:31;6.57;;;2.83;;
47713;SDS011;33475;46.614;13.888;2023-06-10T05:21:58;3.38;;;3.08;;
47713;SDS011;33475;46.614;13.888;2023-06-10T05:24:24;4.65;;;2.92;;
47713;SDS011;33475;46.614;13.888;2023-06-10T05:26:51;4.18;;;3.78;;
47713;SDS011;33475;46.614;13.888;2023-06-10T05:29:17;3.72;;;3.40;;
47713;SDS011;33475;46.614;13.888;2023-06-10T05:31:44;3.10;;;2.80;;
47713;SDS011;33475;46.614;13.888;2023-06-10T05:34:11;3.83;;;3.15;;
47713;SDS011;33475;46.614;13.888;2023-06-10T05:36:37;3.42;;;2.72;;
47713;SDS011;33475;46.614;13.888;2023-06-10T05:39:03;5.97;;;2.90;;
47713;SDS011;33475;46.614;13.888;2023-06-10T05:41:31;3.85;;;2.83;;
47713;SDS011;33475;46.614;13.888;2023-06-10T05:43:58;3.33;;;3.03;;
47713;SDS011;33475;46.614;13.888;2023-06-10T05:46:24;5.03;;;2.95;;
47713;SDS011;33475;46.614;13.888;2023-06-10T05:48:50;4.05;;;2.72;;
47713;SDS011;33475;46.614;13.888;2023-06-10T05:51:16;5.05;;;3.10;;
47713;SDS011;33475;46.614;13.888;2023-06-10T05:53:42;5.10;;;3.05;;
47713;SDS011;33475;46.614;13.888;2023-06-10T05:56:11;7.32;;;3.70;;
47713;SDS011;33475;46.614;13.888;2023-06-10T05:58:38;4.25;;;2.65;;
47713;SDS011;33475;46.614;13.888;2023-06-10T06:01:04;4.85;;;3.00;;
47713;SDS011;33475;46.614;13.888;2023-06-10T06:03:30;3.25;;;2.92;;
47713;SDS011;33475;46.614;13.888;2023-06-10T06:05:57;3.03;;;2.83;;
47713;SDS011;33475;46.614;13.888;2023-06-10T06:08:23;2.60;;;2.40;;
47713;SDS011;33475;46.614;13.888;2023-06-10T06:10:50;2.90;;;2.70;;
47713;SDS011;33475;46.614;13.888;2023-06-10T06:13:16;3.10;;;2.90;;
47713;SDS011;33475;46.614;13.888;2023-06-10T06:15:42;3.28;;;2.90;;
47713;SDS011;33475;46.614;13.888;2023-06-10T06:18:10;3.13;;;2.92;;
47713;SDS011;33475;46.614;13.888;2023-06-10T06:20:36;3.50;;;2.92;;
47713;SDS011;33475;46.614;13.888;2023-06-10T06:23:02;2.70;;;2.50;;
47713;SDS011;33475;46.614;13.888;2023-06-10T06:25:29;3.40;;;3.08;;
47713;SDS011;33475;46.614;13.888;2023-06-10T06:27:56;2.90;;;2.70;;
47713;SDS011;33475;46.614;13.888;2023-06-10T06:30:22;3.17;;;2.63;;
47713;SDS011;33475;46.614;13.888;2023-06-10T06:32:48;3.75;;;3.00;;
47713;SDS011;33475;46.614;13.888;2023-06-10T06:35:16;3.40;;;2.97;;
47713;SDS011;33475;46.614;13.888;2023-06-10T06:37:42;3.15;;;2.85;;
47713;SDS011;33475;46.614;13.888;2023-06-10T06:40:09;4.07;;;2.80;;
47713;SDS011;33475;46.614;13.888;2023-06-10T06:42:36;2.83;;;2.63;;
47713;SDS011;33475;46.614;13.888;2023-06-10T06:45:03;2.85;;;2.58;;
47713;SDS011;33475;46.614;13.888;2023-06-10T06:47:30;7.43;;;2.40;;
47713;SDS011;33475;46.614;13.888;2023-06-10T06:49:56;3.50;;;3.20;;
47713;SDS011;33475;46.614;13.888;2023-06-10T06:52:22;4.85;;;2.83;;
47713;SDS011;33475;46.614;13.888;2023-06-10T06:54:49;3.47;;;2.05;;
47713;SDS011;33475;46.614;13.888;2023-06-10T06:57:15;2.88;;;2.67;;
47713;SDS011;33475;46.614;13.888;2023-06-10T06:59:42;2.85;;;2.65;;
47713;SDS011;33475;46.614;13.888;2023-06-10T07:02:08;2.63;;;2.42;;
47713;SDS011;33475;46.614;13.888;2023-06-10T07:04:36;3.85;;;3.03;;
47713;SDS011;33475;46.614;13.888;2023-06-10T07:07:04;2.72;;;2.45;;
47713;SDS011;33475;46.614;13.888;2023-06-10T07:09:30;4.30;;;3.90;;
47713;SDS011;33475;46.614;13.888;2023-06-10T07:11:56;2.65;;;2.40;;
47713;SDS011;33475;46.614;13.888;2023-06-10T07:14:23;3.78;;;3.00;;
47713;SDS011;33475;46.614;13.888;2023-06-10T07:16:50;2.53;;;2.33;;
47713;SDS011;33475;46.614;13.888;2023-06-10T07:19:16;2.50;;;2.35;;
47713;SDS011;33475;46.614;13.888;2023-06-10T07:21:43;2.50;;;2.30;;
47713;SDS011;33475;46.614;13.888;2023-06-10T07:24:10;3.10;;;2.80;;
47713;SDS011;33475;46.614;13.888;2023-06-10T07:26:37;2.85;;;2.55;;
47713;SDS011;33475;46.614;13.888;2023-06-10T07:29:03;2.90;;;2.70;;
47713;SDS011;33475;46.614;13.888;2023-06-10T07:31:30;3.50;;;2.50;;
47713;SDS011;33475;46.614;13.888;2023-06-10T07:33:56;3.25;;;2.85;;
47713;SDS011;33475;46.614;13.888;2023-06-10T07:36:22;3.10;;;2.67;;
47713;SDS011;33475;46.614;13.888;2023-06-10T07:38:52;5.30;;;2.70;;
47713;SDS011;33475;46.614;13.888;2023-06-10T07:41:19;2.55;;;2.35;;
47713;SDS011;33475;46.614;13.888;2023-06-10T07:43:45;2.67;;;2.42;;
47713;SDS011;33475;46.614;13.888;2023-06-10T07:46:12;2.72;;;2.53;;
47713;SDS011;33475;46.614;13.888;2023-06-10T07:48:38;4.20;;;2.50;;
47713;SDS011;33475;46.614;13.888;2023-06-10T07:51:04;3.13;;;2.83;;
47713;SDS011;33475;46.614;13.888;2023-06-10T07:53:31;2.85;;;2.50;;
47713;SDS011;33475;46.614;13.888;2023-06-10T07:55:57;3.05;;;2.75;;
47713;SDS011;33475;46.614;13.888;2023-06-10T07:58:23;2.60;;;2.40;;
47713;SDS011;33475;46.614;13.888;2023-06-10T08:00:50;5.22;;;2.55;;
47713;SDS011;33475;46.614;13.888;2023-06-10T08:03:16;2.80;;;2.58;;
47713;SDS011;33475;46.614;13.888;2023-06-10T08:05:42;2.55;;;2.35;;
47713;SDS011;33475;46.614;13.888;2023-06-10T08:08:09;3.92;;;3.53;;
47713;SDS011;33475;46.614;13.888;2023-06-10T08:10:36;2.88;;;2.58;;
47713;SDS011;33475;46.614;13.888;2023-06-10T08:13:02;2.60;;;2.38;;
47713;SDS011;33475;46.614;13.888;2023-06-10T08:15:28;3.80;;;2.55;;
47713;SDS011;33475;46.614;13.888;2023-06-10T08:17:55;3.05;;;2.80;;
47713;SDS011;33475;46.614;13.888;2023-06-10T08:20:22;3.08;;;2.75;;
47713;SDS011;33475;46.614;13.888;2023-06-10T08:22:48;3.40;;;3.10;;
47713;SDS011;33475;46.614;13.888;2023-06-10T08:25:15;2.53;;;2.33;;
47713;SDS011;33475;46.614;13.888;2023-06-10T08:27:41;2.90;;;2.65;;
47713;SDS011;33475;46.614;13.888;2023-06-10T08:30:08;5.93;;;2.92;;
47713;SDS011;33475;46.614;13.888;2023-06-10T08:32:36;2.42;;;2.22;;
47713;SDS011;33475;46.614;13.888;2023-06-10T08:35:03;3.17;;;2.97;;
47713;SDS011;33475;46.614;13.888;2023-06-10T08:37:29;2.90;;;2.70;;
47713;SDS011;33475;46.614;13.888;2023-06-10T08:39:55;3.13;;;2.83;;
47713;SDS011;33475;46.614;13.888;2023-06-10T08:42:22;2.78;;;2.58;;
47713;SDS011;33475;46.614;13.888;2023-06-10T08:44:50;2.92;;;2.63;;
47713;SDS011;33475;46.614;13.888;2023-06-10T08:47:18;4.55;;;2.72;;
47713;SDS011;33475;46.614;13.888;2023-06-10T08:49:46;3.20;;;2.90;;
47713;SDS011;33475;46.614;13.888;2023-06-10T08:52:19;5.03;;;2.95;;
47713;SDS011;33475;46.614;13.888;2023-06-10T08:57:40;3.38;;;2.88;;
47713;SDS011;33475;46.614;13.888;2023-06-10T09:00:07;3.13;;;2.83;;
47713;SDS011;33475;46.614;13.888;2023-06-10T09:02:34;2.53;;;2.33;;
47713;SDS011;33475;46.614;13.888;2023-06-10T09:05:02;2.97;;;2.78;;
47713;SDS011;33475;46.614;13.888;2023-06-10T09:07:29;3.00;;;2.80;;
47713;SDS011;33475;46.614;13.888;2023-06-10T09:09:57;3.25;;;2.78;;
47713;SDS011;33475;46.614;13.888;2023-06-10T09:12:24;2.97;;;2.60;;
47713;SDS011;33475;46.614;13.888;2023-06-10T09:14:51;2.75;;;2.55;;
47713;SDS011;33475;46.614;13.888;2023-06-10T09:17:18;3.90;;;2.47;;
47713;SDS011;33475;46.614;13.888;2023-06-10T09:19:44;2.40;;;2.20;;
47713;SDS011;33475;46.614;13.888;2023-06-10T09:22:11;2.55;;;2.35;;
47713;SDS011;33475;46.614;13.888;2023-06-10T09:24:37;2.72;;;2.53;;
47713;SDS011;33475;46.614;13.888;2023-06-10T09:27:06;3.55;;;2.72;;
47713;SDS011;33475;46.614;13.888;2023-06-10T09:29:54;2.78;;;2.50;;
47713;SDS011;33475;46.614;13.888;2023-06-10T09:32:19;2.72;;;2.40;;
47713;SDS011;33475;46.614;13.888;2023-06-10T09:34:46;3.25;;;2.53;;
47713;SDS011;33475;46.614;13.888;2023-06-10T09:37:14;3.15;;;2.85;;
47713;SDS011;33475;46.614;13.888;2023-06-10T09:39:52;2.40;;;2.20;;
47713;SDS011;33475;46.614;13.888;2023-06-10T09:42:26;3.00;;;2.60;;
47713;SDS011;33475;46.614;13.888;2023-06-10T09:44:52;2.97;;;2.78;;
47713;SDS011;33475;46.614;13.888;2023-06-10T09:47:21;3.90;;;2.35;;
47713;SDS011;33475;46.614;13.888;2023-06-10T09:49:51;2.10;;;2.00;;
47713;SDS011;33475;46.614;13.888;2023-06-10T09:54:53;2.22;;;2.08;;
47713;SDS011;33475;46.614;13.888;2023-06-10T09:57:19;2.63;;;2.40;;
47713;SDS011;33475;46.614;13.888;2023-06-10T09:59:46;2.50;;;2.30;;
47713;SDS011;33475;46.614;13.888;2023-06-10T10:02:16;3.95;;;2.47;;
47713;SDS011;33475;46.614;13.888;2023-06-10T10:04:42;3.17;;;2.70;;
47713;SDS011;33475;46.614;13.888;2023-06-10T10:07:09;2.40;;;2.20;;
47713;SDS011;33475;46.614;13.888;2023-06-10T10:09:36;2.72;;;2.53;;
47713;SDS011;33475;46.614;13.888;2023-06-10T10:12:04;5.43;;;2.65;;
47713;SDS011;33475;46.614;13.888;2023-06-10T10:14:33;3.15;;;2.33;;
47713;SDS011;33475;46.614;13.888;2023-06-10T10:17:01;2.78;;;2.58;;
47713;SDS011;33475;46.614;13.888;2023-06-10T10:19:28;3.22;;;2.13;;
47713;SDS011;33475;46.614;13.888;2023-06-10T10:22:01;2.45;;;2.25;;
47713;SDS011;33475;46.614;13.888;2023-06-10T10:24:33;3.15;;;1.90;;
47713;SDS011;33475;46.614;13.888;2023-06-10T10:27:01;2.30;;;2.10;;
47713;SDS011;33475;46.614;13.888;2023-06-10T10:31:54;3.10;;;2.70;;
47713;SDS011;33475;46.614;13.888;2023-06-10T10:34:30;2.72;;;2.33;;
47713;SDS011;33475;46.614;13.888;2023-06-10T10:36:57;2.17;;;1.98;;
47713;SDS011;33475;46.614;13.888;2023-06-10T10:39:23;2.22;;;2.00;;
47713;SDS011;33475;46.614;13.888;2023-06-10T10:41:51;2.00;;;1.90;;
47713;SDS011;33475;46.614;13.888;2023-06-10T10:44:17;2.35;;;2.15;;
47713;SDS011;33475;46.614;13.888;2023-06-10T10:46:49;2.80;;;2.08;;
47713;SDS011;33475;46.614;13.888;2023-06-10T10:49:15;1.90;;;1.80;;
47713;SDS011;33475;46.614;13.888;2023-06-10T10:51:59;2.17;;;1.98;;
47713;SDS011;33475;46.614;13.888;2023-06-10T10:54:32;3.65;;;2.03;;
47713;SDS011;33475;46.614;13.888;2023-06-10T10:59:44;2.60;;;2.08;;
47713;SDS011;33475;46.614;13.888;2023-06-10T11:02:14;2.72;;;2.53;;
47713;SDS011;33475;46.614;13.888;2023-06-10T11:04:46;2.20;;;2.00;;
47713;SDS011;33475;46.614;13.888;2023-06-10T11:07:12;3.65;;;2.47;;
47713;SDS011;33475;46.614;13.888;2023-06-10T11:15:09;4.07;;;2.13;;
47713;SDS011;33475;46.614;13.888;2023-06-10T11:17:35;2.40;;;2.20;;
47713;SDS011;33475;46.614;13.888;2023-06-10T11:20:01;2.30;;;2.15;;
47713;SDS011;33475;46.614;13.888;2023-06-10T11:22:28;2.55;;;2.35;;
47713;SDS011;33475;46.614;13.888;2023-06-10T11:24:54;2.85;;;2.65;;
47713;SDS011;33475;46.614;13.888;2023-06-10T11:27:21;2.60;;;2.40;;
47713;SDS011;33475;46.614;13.888;2023-06-10T11:32:31;4.30;;;2.15;;
47713;SDS011;33475;46.614;13.888;2023-06-10T11:34:58;2.22;;;2.03;;
47713;SDS011;33475;46.614;13.888;2023-06-10T11:37:24;2.88;;;2.58;;
47713;SDS011;33475;46.614;13.888;2023-06-10T11:39:51;2.78;;;2.42;;
47713;SDS011;33475;46.614;13.888;2023-06-10T11:42:17;3.53;;;2.22;;
47713;SDS011;33475;46.614;13.888;2023-06-10T11:44:51;3.63;;;3.33;;
47713;SDS011;33475;46.614;13.888;2023-06-10T11:47:18;2.93;;;2.50;;
47713;SDS011;33475;46.614;13.888;2023-06-10T11:49:45;4.53;;;2.42;;
47713;SDS011;33475;46.614;13.888;2023-06-10T11:52:12;2.35;;;2.25;;
47713;SDS011;33475;46.614;13.888;2023-06-10T11:54:38;5.32;;;2.15;;
47713;SDS011;33475;46.614;13.888;2023-06-10T11:57:04;3.25;;;2.28;;
47713;SDS011;33475;46.614;13.888;2023-06-10T11:59:33;2.30;;;1.92;;
47713;SDS011;33475;46.614;13.888;2023-06-10T12:02:00;2.20;;;2.00;;
47713;SDS011;33475;46.614;13.888;2023-06-10T12:04:26;3.20;;;1.60;;
47713;SDS011;33475;46.614;13.888;2023-06-10T12:06:53;2.03;;;1.88;;
47713;SDS011;33475;46.614;13.888;2023-06-10T12:09:21;1.90;;;1.70;;
47713;SDS011;33475;46.614;13.888;2023-06-10T12:11:51;1.92;;;1.58;;
47713;SDS011;33475;46.614;13.888;2023-06-10T12:17:02;1.35;;;1.25;;
47713;SDS011;33475;46.614;13.888;2023-06-10T12:19:29;1.45;;;1.35;;
47713;SDS011;33475;46.614;13.888;2023-06-10T12:21:56;3.83;;;1.42;;
47713;SDS011;33475;46.614;13.888;2023-06-10T12:24:22;1.85;;;1.45;;
47713;SDS011;33475;46.614;13.888;2023-06-10T12:26:49;1.63;;;1.52;;
47713;SDS011;33475;46.614;13.888;2023-06-10T12:29:20;2.65;;;2.38;;
47713;SDS011;33475;46.614;13.888;2023-06-10T12:31:59;2.25;;;1.75;;
47713;SDS011;33475;46.614;13.888;2023-06-10T12:34:33;1.80;;;1.70;;
47713;SDS011;33475;46.614;13.888;2023-06-10T12:37:03;2.13;;;1.92;;
47713;SDS011;33475;46.614;13.888;2023-06-10T12:39:33;1.77;;;1.65;;
47713;SDS011;33475;46.614;13.888;2023-06-10T12:41:59;3.08;;;1.58;;
47713;SDS011;33475;46.614;13.888;2023-06-10T12:44:33;2.17;;;2.00;;
47713;SDS011;33475;46.614;13.888;2023-06-10T12:46:59;1.55;;;1.45;;
47713;SDS011;33475;46.614;13.888;2023-06-10T12:49:26;1.88;;;1.50;;
47713;SDS011;33475;46.614;13.888;2023-06-10T12:51:52;1.55;;;1.45;;
47713;SDS011;33475;46.614;13.888;2023-06-10T12:54:19;1.55;;;1.45;;
47713;SDS011;33475;46.614;13.888;2023-06-10T12:56:45;0.90;;;0.90;;
47713;SDS011;33475;46.614;13.888;2023-06-10T12:59:12;1.10;;;1.00;;
47713;SDS011;33475;46.614;13.888;2023-06-10T13:01:39;0.90;;;0.90;;
47713;SDS011;33475;46.614;13.888;2023-06-10T13:04:05;1.00;;;0.90;;
47713;SDS011;33475;46.614;13.888;2023-06-10T13:06:32;0.70;;;0.70;;
47713;SDS011;33475;46.614;13.888;2023-06-10T13:09:02;0.95;;;0.90;;
47713;SDS011;33475;46.614;13.888;2023-06-10T13:11:28;1.27;;;0.98;;
47713;SDS011;33475;46.614;13.888;2023-06-10T13:13:54;1.10;;;1.00;;
47713;SDS011;33475;46.614;13.888;2023-06-10T13:16:21;1.00;;;1.00;;
47713;SDS011;33475;46.614;13.888;2023-06-10T13:18:47;1.80;;;0.70;;
47713;SDS011;33475;46.614;13.888;2023-06-10T13:21:14;1.67;;;0.80;;
47713;SDS011;33475;46.614;13.888;2023-06-10T13:23:40;1.33;;;1.00;;
47713;SDS011;33475;46.614;13.888;2023-06-10T13:26:06;1.08;;;0.90;;
47713;SDS011;33475;46.614;13.888;2023-06-10T13:28:33;3.05;;;1.15;;
47713;SDS011;33475;46.614;13.888;2023-06-10T13:30:59;1.27;;;1.17;;
47713;SDS011;33475;46.614;13.888;2023-06-10T13:33:25;1.92;;;0.90;;
47713;SDS011;33475;46.614;13.888;2023-06-10T13:35:51;1.30;;;1.20;;
47713;SDS011;33475;46.614;13.888;2023-06-10T13:38:18;1.42;;;1.33;;
47713;SDS011;33475;46.614;13.888;2023-06-10T13:40:44;2.08;;;1.10;;
47713;SDS011;33475;46.614;13.888;2023-06-10T13:43:10;1.90;;;1.38;;
47713;SDS011;33475;46.614;13.888;2023-06-10T13:45:38;1.23;;;1.23;;
47713;SDS011;33475;46.614;13.888;2023-06-10T13:48:05;2.15;;;1.55;;
47713;SDS011;33475;46.614;13.888;2023-06-10T13:50:31;1.23;;;1.13;;
47713;SDS011;33475;46.614;13.888;2023-06-10T13:52:58;1.80;;;1.08;;
47713;SDS011;33475;46.614;13.888;2023-06-10T13:55:24;2.08;;;1.55;;
47713;SDS011;33475;46.614;13.888;2023-06-10T13:57:51;1.40;;;1.30;;
47713;SDS011;33475;46.614;13.888;2023-06-10T14:00:17;1.67;;;1.58;;
47713;SDS011;33475;46.614;13.888;2023-06-10T14:02:44;1.88;;;1.77;;
47713;SDS011;33475;46.614;13.888;2023-06-10T14:05:11;1.58;;;1.35;;
47713;SDS011;33475;46.614;13.888;2023-06-10T14:07:37;1.77;;;1.40;;
47713;SDS011;33475;46.614;13.888;2023-06-10T14:10:06;3.72;;;1.25;;
47713;SDS011;33475;46.614;13.888;2023-06-10T14:12:33;1.88;;;1.48;;
47713;SDS011;33475;46.614;13.888;2023-06-10T14:15:00;1.75;;;1.65;;
47713;SDS011;33475;46.614;13.888;2023-06-10T14:17:26;3.30;;;1.52;;
47713;SDS011;33475;46.614;13.888;2023-06-10T14:19:52;1.80;;;1.70;;
47713;SDS011;33475;46.614;13.888;2023-06-10T14:22:18;1.73;;;1.60;;
47713;SDS011;33475;46.614;13.888;2023-06-10T14:24:45;2.45;;;1.65;;
47713;SDS011;33475;46.614;13.888;2023-06-10T14:27:12;2.17;;;1.98;;
47713;SDS011;33475;46.614;13.888;2023-06-10T14:29:38;3.05;;;2.47;;
47713;SDS011;33475;46.614;13.888;2023-06-10T14:32:05;2.35;;;2.15;;
47713;SDS011;33475;46.614;13.888;2023-06-10T14:34:32;2.17;;;1.95;;
47713;SDS011;33475;46.614;13.888;2023-06-10T14:37:01;2.20;;;2.00;;
47713;SDS011;33475;46.614;13.888;2023-06-10T14:39:29;2.15;;;1.80;;
47713;SDS011;33475;46.614;13.888;2023-06-10T14:41:56;1.80;;;1.70;;
47713;SDS011;33475;46.614;13.888;2023-06-10T14:44:23;2.28;;;2.08;;
47713;SDS011;33475;46.614;13.888;2023-06-10T14:46:49;2.15;;;2.05;;
47713;SDS011;33475;46.614;13.888;2023-06-10T14:49:15;2.97;;;2.00;;
47713;SDS011;33475;46.614;13.888;2023-06-10T14:51:41;3.13;;;1.92;;
47713;SDS011;33475;46.614;13.888;2023-06-10T14:54:08;2.20;;;2.00;;
47713;SDS011;33475;46.614;13.888;2023-06-10T14:56:34;1.90;;;1.70;;
47713;SDS011;33475;46.614;13.888;2023-06-10T14:59:01;1.63;;;0.88;;